sensor_id;sensor_type;location;lat;lon;timestamp;P1;durP1;ratioP1;P2;durP2;ratioP2
12145;SDS011;6136;47.032;15.398;2023-07-02T00:00:09;3.65;;;2.92;;
12145;SDS011;6136;47.032;15.398;2023-07-02T00:02:39;3.88;;;3.10;;
12145;SDS011;6136;47.032;15.398;2023-07-02T00:05:08;3.50;;;3.17;;
12145;SDS011;6136;47.032;15.398;2023-07-02T00:07:36;3.40;;;3.10;;
12145;SDS011;6136;47.032;15.398;2023-07-02T00:10:05;5.13;;;3.20;;
12145;SDS011;6136;47.032;15.398;2023-07-02T00:12:33;4.18;;;3.22;;
12145;SDS011;6136;47.032;15.398;2023-07-02T00:15:02;5.07;;;3.30;;
12145;SDS011;6136;47.032;15.398;2023-07-02T00:17:30;4.93;;;3.35;;
12145;SDS011;6136;47.032;15.398;2023-07-02T00:20:00;3.78;;;3.10;;
12145;SDS011;6136;47.032;15.398;2023-07-02T00:22:35;4.07;;;3.40;;
12145;SDS011;6136;47.032;15.398;2023-07-02T00:25:03;3.42;;;2.90;;
12145;SDS011;6136;47.032;15.398;2023-07-02T00:27:31;4.15;;;3.22;;
12145;SDS011;6136;47.032;15.398;2023-07-02T00:29:59;3.13;;;2.80;;
12145;SDS011;6136;47.032;15.398;2023-07-02T00:32:27;3.60;;;2.88;;
12145;SDS011;6136;47.032;15.398;2023-07-02T00:34:56;4.35;;;3.05;;
12145;SDS011;6136;47.032;15.398;2023-07-02T00:37:27;3.90;;;3.13;;
12145;SDS011;6136;47.032;15.398;2023-07-02T00:39:55;5.40;;;3.30;;
12145;SDS011;6136;47.032;15.398;2023-07-02T00:42:24;5.43;;;3.08;;
12145;SDS011;6136;47.032;15.398;2023-07-02T00:44:56;3.78;;;3.20;;
12145;SDS011;6136;47.032;15.398;2023-07-02T00:47:29;4.28;;;3.42;;
12145;SDS011;6136;47.032;15.398;2023-07-02T00:49:58;4.68;;;3.60;;
12145;SDS011;6136;47.032;15.398;2023-07-02T00:52:29;6.75;;;3.83;;
12145;SDS011;6136;47.032;15.398;2023-07-02T00:54:58;4.72;;;3.15;;
12145;SDS011;6136;47.032;15.398;2023-07-02T00:57:26;6.72;;;3.40;;
12145;SDS011;6136;47.032;15.398;2023-07-02T00:59:56;4.03;;;3.40;;
12145;SDS011;6136;47.032;15.398;2023-07-02T01:02:26;3.80;;;3.25;;
12145;SDS011;6136;47.032;15.398;2023-07-02T01:04:56;4.15;;;3.10;;
12145;SDS011;6136;47.032;15.398;2023-07-02T01:07:29;6.15;;;3.00;;
12145;SDS011;6136;47.032;15.398;2023-07-02T01:09:57;4.95;;;3.70;;
12145;SDS011;6136;47.032;15.398;2023-07-02T01:12:25;3.58;;;2.97;;
12145;SDS011;6136;47.032;15.398;2023-07-02T01:14:56;4.60;;;3.40;;
12145;SDS011;6136;47.032;15.398;2023-07-02T01:17:30;3.78;;;3.38;;
12145;SDS011;6136;47.032;15.398;2023-07-02T01:20:08;3.60;;;3.13;;
12145;SDS011;6136;47.032;15.398;2023-07-02T01:22:38;6.20;;;3.90;;
12145;SDS011;6136;47.032;15.398;2023-07-02T01:25:06;5.97;;;3.80;;
12145;SDS011;6136;47.032;15.398;2023-07-02T01:27:36;6.32;;;3.83;;
12145;SDS011;6136;47.032;15.398;2023-07-02T01:30:06;4.72;;;3.08;;
12145;SDS011;6136;47.032;15.398;2023-07-02T01:32:37;3.75;;;3.13;;
12145;SDS011;6136;47.032;15.398;2023-07-02T01:35:05;5.13;;;3.85;;
12145;SDS011;6136;47.032;15.398;2023-07-02T01:37:36;5.18;;;3.40;;
12145;SDS011;6136;47.032;15.398;2023-07-02T01:40:05;3.92;;;3.25;;
12145;SDS011;6136;47.032;15.398;2023-07-02T01:42:35;3.17;;;2.88;;
12145;SDS011;6136;47.032;15.398;2023-07-02T01:45:03;4.80;;;3.35;;
12145;SDS011;6136;47.032;15.398;2023-07-02T01:47:32;4.32;;;3.50;;
12145;SDS011;6136;47.032;15.398;2023-07-02T01:50:01;5.50;;;3.60;;
12145;SDS011;6136;47.032;15.398;2023-07-02T01:52:32;3.80;;;3.00;;
12145;SDS011;6136;47.032;15.398;2023-07-02T01:55:00;10.00;;;3.63;;
12145;SDS011;6136;47.032;15.398;2023-07-02T01:57:30;3.63;;;3.28;;
12145;SDS011;6136;47.032;15.398;2023-07-02T01:59:58;3.53;;;3.03;;
12145;SDS011;6136;47.032;15.398;2023-07-02T02:02:27;5.50;;;3.47;;
12145;SDS011;6136;47.032;15.398;2023-07-02T02:04:55;5.47;;;3.25;;
12145;SDS011;6136;47.032;15.398;2023-07-02T02:07:24;5.43;;;3.60;;
12145;SDS011;6136;47.032;15.398;2023-07-02T02:09:53;6.20;;;3.30;;
12145;SDS011;6136;47.032;15.398;2023-07-02T02:12:22;5.07;;;3.47;;
12145;SDS011;6136;47.032;15.398;2023-07-02T02:14:51;9.40;;;3.42;;
12145;SDS011;6136;47.032;15.398;2023-07-02T02:17:19;5.43;;;3.40;;
12145;SDS011;6136;47.032;15.398;2023-07-02T02:19:47;4.63;;;3.78;;
12145;SDS011;6136;47.032;15.398;2023-07-02T02:22:15;5.07;;;3.53;;
12145;SDS011;6136;47.032;15.398;2023-07-02T02:24:43;6.18;;;3.75;;
12145;SDS011;6136;47.032;15.398;2023-07-02T02:27:13;4.15;;;3.47;;
12145;SDS011;6136;47.032;15.398;2023-07-02T02:29:41;4.28;;;3.53;;
12145;SDS011;6136;47.032;15.398;2023-07-02T02:32:09;4.47;;;3.58;;
12145;SDS011;6136;47.032;15.398;2023-07-02T02:34:38;4.07;;;3.35;;
12145;SDS011;6136;47.032;15.398;2023-07-02T02:37:06;4.18;;;3.70;;
12145;SDS011;6136;47.032;15.398;2023-07-02T02:39:36;5.68;;;3.75;;
12145;SDS011;6136;47.032;15.398;2023-07-02T02:42:04;5.75;;;3.92;;
12145;SDS011;6136;47.032;15.398;2023-07-02T02:44:34;5.30;;;3.78;;
12145;SDS011;6136;47.032;15.398;2023-07-02T02:47:03;5.07;;;3.67;;
12145;SDS011;6136;47.032;15.398;2023-07-02T02:49:32;7.68;;;3.90;;
12145;SDS011;6136;47.032;15.398;2023-07-02T02:52:00;6.78;;;4.22;;
12145;SDS011;6136;47.032;15.398;2023-07-02T02:54:28;4.43;;;4.03;;
12145;SDS011;6136;47.032;15.398;2023-07-02T02:56:56;4.22;;;3.60;;
12145;SDS011;6136;47.032;15.398;2023-07-02T02:59:24;4.57;;;3.85;;
12145;SDS011;6136;47.032;15.398;2023-07-02T03:01:54;4.85;;;4.32;;
12145;SDS011;6136;47.032;15.398;2023-07-02T03:04:22;4.78;;;3.55;;
12145;SDS011;6136;47.032;15.398;2023-07-02T03:06:51;7.88;;;4.35;;
12145;SDS011;6136;47.032;15.398;2023-07-02T03:09:20;5.57;;;4.22;;
12145;SDS011;6136;47.032;15.398;2023-07-02T03:11:48;4.10;;;3.70;;
12145;SDS011;6136;47.032;15.398;2023-07-02T03:14:16;5.83;;;4.47;;
12145;SDS011;6136;47.032;15.398;2023-07-02T03:16:45;6.13;;;4.18;;
12145;SDS011;6136;47.032;15.398;2023-07-02T03:19:15;4.47;;;3.80;;
12145;SDS011;6136;47.032;15.398;2023-07-02T03:21:43;6.00;;;4.30;;
12145;SDS011;6136;47.032;15.398;2023-07-02T03:24:12;4.22;;;3.83;;
12145;SDS011;6136;47.032;15.398;2023-07-02T03:26:40;8.23;;;4.15;;
12145;SDS011;6136;47.032;15.398;2023-07-02T03:29:08;4.57;;;3.65;;
12145;SDS011;6136;47.032;15.398;2023-07-02T03:31:36;4.47;;;3.63;;
12145;SDS011;6136;47.032;15.398;2023-07-02T03:34:06;4.57;;;3.72;;
12145;SDS011;6136;47.032;15.398;2023-07-02T03:36:37;3.72;;;3.28;;
12145;SDS011;6136;47.032;15.398;2023-07-02T03:39:05;3.78;;;3.35;;
12145;SDS011;6136;47.032;15.398;2023-07-02T03:41:36;4.88;;;3.92;;
12145;SDS011;6136;47.032;15.398;2023-07-02T03:44:04;4.75;;;4.05;;
12145;SDS011;6136;47.032;15.398;2023-07-02T03:46:32;6.20;;;3.92;;
12145;SDS011;6136;47.032;15.398;2023-07-02T03:49:00;3.90;;;3.50;;
12145;SDS011;6136;47.032;15.398;2023-07-02T03:51:29;6.03;;;3.80;;
12145;SDS011;6136;47.032;15.398;2023-07-02T03:53:59;4.90;;;4.00;;
12145;SDS011;6136;47.032;15.398;2023-07-02T03:56:27;6.53;;;4.10;;
12145;SDS011;6136;47.032;15.398;2023-07-02T03:58:55;7.10;;;4.32;;
12145;SDS011;6136;47.032;15.398;2023-07-02T04:01:23;5.53;;;4.70;;
12145;SDS011;6136;47.032;15.398;2023-07-02T04:03:52;5.22;;;3.50;;
12145;SDS011;6136;47.032;15.398;2023-07-02T04:06:21;5.03;;;3.75;;
12145;SDS011;6136;47.032;15.398;2023-07-02T04:08:49;6.30;;;3.92;;
12145;SDS011;6136;47.032;15.398;2023-07-02T04:11:19;4.43;;;3.45;;
12145;SDS011;6136;47.032;15.398;2023-07-02T04:13:47;5.13;;;4.05;;
12145;SDS011;6136;47.032;15.398;2023-07-02T04:16:15;4.80;;;4.03;;
12145;SDS011;6136;47.032;15.398;2023-07-02T04:18:43;4.25;;;3.63;;
12145;SDS011;6136;47.032;15.398;2023-07-02T04:21:11;5.55;;;4.05;;
12145;SDS011;6136;47.032;15.398;2023-07-02T04:23:39;4.95;;;4.25;;
12145;SDS011;6136;47.032;15.398;2023-07-02T04:26:08;4.90;;;4.10;;
12145;SDS011;6136;47.032;15.398;2023-07-02T04:28:49;5.25;;;3.75;;
12145;SDS011;6136;47.032;15.398;2023-07-02T04:31:17;8.50;;;4.38;;
12145;SDS011;6136;47.032;15.398;2023-07-02T04:33:45;9.15;;;4.70;;
12145;SDS011;6136;47.032;15.398;2023-07-02T04:36:14;6.35;;;4.32;;
12145;SDS011;6136;47.032;15.398;2023-07-02T04:38:42;5.57;;;3.75;;
12145;SDS011;6136;47.032;15.398;2023-07-02T04:41:10;4.35;;;3.92;;
12145;SDS011;6136;47.032;15.398;2023-07-02T04:43:38;7.75;;;4.22;;
12145;SDS011;6136;47.032;15.398;2023-07-02T04:46:07;5.65;;;4.63;;
12145;SDS011;6136;47.032;15.398;2023-07-02T04:48:38;8.82;;;4.30;;
12145;SDS011;6136;47.032;15.398;2023-07-02T04:51:06;6.47;;;4.25;;
12145;SDS011;6136;47.032;15.398;2023-07-02T04:53:35;6.70;;;4.55;;
12145;SDS011;6136;47.032;15.398;2023-07-02T04:56:04;7.95;;;4.25;;
12145;SDS011;6136;47.032;15.398;2023-07-02T04:58:34;5.53;;;4.40;;
12145;SDS011;6136;47.032;15.398;2023-07-02T05:01:02;5.40;;;3.83;;
12145;SDS011;6136;47.032;15.398;2023-07-02T05:03:32;6.50;;;4.90;;
12145;SDS011;6136;47.032;15.398;2023-07-02T05:06:01;4.15;;;3.13;;
12145;SDS011;6136;47.032;15.398;2023-07-02T05:08:29;5.18;;;3.92;;
12145;SDS011;6136;47.032;15.398;2023-07-02T05:10:57;4.55;;;3.88;;
12145;SDS011;6136;47.032;15.398;2023-07-02T05:13:26;4.65;;;4.15;;
12145;SDS011;6136;47.032;15.398;2023-07-02T05:15:54;4.68;;;4.20;;
12145;SDS011;6136;47.032;15.398;2023-07-02T05:18:22;5.05;;;4.53;;
12145;SDS011;6136;47.032;15.398;2023-07-02T05:20:51;5.68;;;4.68;;
12145;SDS011;6136;47.032;15.398;2023-07-02T05:23:20;5.65;;;4.22;;
12145;SDS011;6136;47.032;15.398;2023-07-02T05:25:48;8.07;;;4.10;;
12145;SDS011;6136;47.032;15.398;2023-07-02T05:28:16;5.53;;;4.30;;
12145;SDS011;6136;47.032;15.398;2023-07-02T05:30:44;5.55;;;4.07;;
12145;SDS011;6136;47.032;15.398;2023-07-02T05:33:13;6.70;;;4.60;;
12145;SDS011;6136;47.032;15.398;2023-07-02T05:35:41;5.88;;;4.03;;
12145;SDS011;6136;47.032;15.398;2023-07-02T05:38:11;5.15;;;3.95;;
12145;SDS011;6136;47.032;15.398;2023-07-02T05:40:39;8.25;;;3.90;;
12145;SDS011;6136;47.032;15.398;2023-07-02T05:43:07;8.50;;;4.45;;
12145;SDS011;6136;47.032;15.398;2023-07-02T05:45:35;5.30;;;4.30;;
12145;SDS011;6136;47.032;15.398;2023-07-02T05:48:03;6.43;;;4.53;;
12145;SDS011;6136;47.032;15.398;2023-07-02T05:50:32;5.60;;;4.43;;
12145;SDS011;6136;47.032;15.398;2023-07-02T05:53:00;5.10;;;4.13;;
12145;SDS011;6136;47.032;15.398;2023-07-02T05:55:29;8.18;;;4.10;;
12145;SDS011;6136;47.032;15.398;2023-07-02T05:57:58;4.70;;;4.03;;
12145;SDS011;6136;47.032;15.398;2023-07-02T06:00:28;4.40;;;3.80;;
12145;SDS011;6136;47.032;15.398;2023-07-02T06:02:56;6.18;;;4.47;;
12145;SDS011;6136;47.032;15.398;2023-07-02T06:05:25;5.05;;;4.40;;
12145;SDS011;6136;47.032;15.398;2023-07-02T06:07:53;10.55;;;4.57;;
12145;SDS011;6136;47.032;15.398;2023-07-02T06:10:21;6.22;;;4.50;;
12145;SDS011;6136;47.032;15.398;2023-07-02T06:12:50;7.65;;;4.20;;
12145;SDS011;6136;47.032;15.398;2023-07-02T06:15:19;7.00;;;4.28;;
12145;SDS011;6136;47.032;15.398;2023-07-02T06:17:47;4.13;;;3.70;;
12145;SDS011;6136;47.032;15.398;2023-07-02T06:20:15;6.57;;;3.53;;
12145;SDS011;6136;47.032;15.398;2023-07-02T06:22:43;4.90;;;4.38;;
12145;SDS011;6136;47.032;15.398;2023-07-02T06:25:12;6.18;;;4.00;;
12145;SDS011;6136;47.032;15.398;2023-07-02T06:27:41;4.93;;;4.40;;
12145;SDS011;6136;47.032;15.398;2023-07-02T06:30:11;5.45;;;4.50;;
12145;SDS011;6136;47.032;15.398;2023-07-02T06:32:39;6.13;;;4.78;;
12145;SDS011;6136;47.032;15.398;2023-07-02T06:35:08;5.43;;;4.57;;
12145;SDS011;6136;47.032;15.398;2023-07-02T06:37:36;5.70;;;4.45;;
12145;SDS011;6136;47.032;15.398;2023-07-02T06:40:05;5.43;;;4.22;;
12145;SDS011;6136;47.032;15.398;2023-07-02T06:42:34;5.45;;;4.85;;
12145;SDS011;6136;47.032;15.398;2023-07-02T06:45:03;5.28;;;4.18;;
12145;SDS011;6136;47.032;15.398;2023-07-02T06:47:34;6.63;;;4.88;;
12145;SDS011;6136;47.032;15.398;2023-07-02T06:50:02;5.03;;;4.30;;
12145;SDS011;6136;47.032;15.398;2023-07-02T06:52:30;7.75;;;4.18;;
12145;SDS011;6136;47.032;15.398;2023-07-02T06:54:59;4.97;;;4.47;;
12145;SDS011;6136;47.032;15.398;2023-07-02T06:57:27;5.78;;;4.50;;
12145;SDS011;6136;47.032;15.398;2023-07-02T06:59:57;5.32;;;3.80;;
12145;SDS011;6136;47.032;15.398;2023-07-02T07:02:26;4.30;;;3.88;;
12145;SDS011;6136;47.032;15.398;2023-07-02T07:04:56;5.07;;;4.10;;
12145;SDS011;6136;47.032;15.398;2023-07-02T07:07:24;4.53;;;4.10;;
12145;SDS011;6136;47.032;15.398;2023-07-02T07:09:52;5.15;;;4.03;;
12145;SDS011;6136;47.032;15.398;2023-07-02T07:12:21;8.48;;;3.88;;
12145;SDS011;6136;47.032;15.398;2023-07-02T07:14:49;7.65;;;4.78;;
12145;SDS011;6136;47.032;15.398;2023-07-02T07:17:17;5.63;;;3.83;;
12145;SDS011;6136;47.032;15.398;2023-07-02T07:19:45;4.70;;;4.15;;
12145;SDS011;6136;47.032;15.398;2023-07-02T07:22:15;4.57;;;3.67;;
12145;SDS011;6136;47.032;15.398;2023-07-02T07:24:43;4.15;;;3.75;;
12145;SDS011;6136;47.032;15.398;2023-07-02T07:27:11;4.35;;;3.78;;
12145;SDS011;6136;47.032;15.398;2023-07-02T07:29:39;4.05;;;3.65;;
12145;SDS011;6136;47.032;15.398;2023-07-02T07:32:08;4.32;;;3.30;;
12145;SDS011;6136;47.032;15.398;2023-07-02T07:34:36;5.10;;;3.30;;
12145;SDS011;6136;47.032;15.398;2023-07-02T07:37:04;4.03;;;3.55;;
12145;SDS011;6136;47.032;15.398;2023-07-02T07:39:34;4.97;;;3.75;;
12145;SDS011;6136;47.032;15.398;2023-07-02T07:42:03;4.00;;;3.33;;
12145;SDS011;6136;47.032;15.398;2023-07-02T07:44:31;4.10;;;3.70;;
12145;SDS011;6136;47.032;15.398;2023-07-02T07:46:59;4.07;;;3.67;;
12145;SDS011;6136;47.032;15.398;2023-07-02T07:49:27;3.55;;;3.17;;
12145;SDS011;6136;47.032;15.398;2023-07-02T07:51:55;4.30;;;3.60;;
12145;SDS011;6136;47.032;15.398;2023-07-02T07:54:24;4.25;;;3.85;;
12145;SDS011;6136;47.032;15.398;2023-07-02T07:56:53;3.85;;;3.35;;
12145;SDS011;6136;47.032;15.398;2023-07-02T07:59:21;4.22;;;3.40;;
12145;SDS011;6136;47.032;15.398;2023-07-02T08:01:49;5.85;;;3.80;;
12145;SDS011;6136;47.032;15.398;2023-07-02T08:04:18;3.80;;;3.50;;
12145;SDS011;6136;47.032;15.398;2023-07-02T08:06:46;3.53;;;3.22;;
12145;SDS011;6136;47.032;15.398;2023-07-02T08:09:14;4.60;;;3.95;;
12145;SDS011;6136;47.032;15.398;2023-07-02T08:11:42;4.00;;;3.60;;
12145;SDS011;6136;47.032;15.398;2023-07-02T08:14:12;3.70;;;3.25;;
12145;SDS011;6136;47.032;15.398;2023-07-02T08:16:40;3.63;;;3.17;;
12145;SDS011;6136;47.032;15.398;2023-07-02T08:19:09;4.18;;;3.20;;
12145;SDS011;6136;47.032;15.398;2023-07-02T08:21:37;4.65;;;3.50;;
12145;SDS011;6136;47.032;15.398;2023-07-02T08:24:05;3.13;;;2.88;;
12145;SDS011;6136;47.032;15.398;2023-07-02T08:26:34;4.07;;;3.65;;
12145;SDS011;6136;47.032;15.398;2023-07-02T08:29:02;5.80;;;3.70;;
12145;SDS011;6136;47.032;15.398;2023-07-02T08:31:33;3.00;;;2.80;;
12145;SDS011;6136;47.032;15.398;2023-07-02T08:34:01;3.58;;;2.42;;
12145;SDS011;6136;47.032;15.398;2023-07-02T08:36:30;2.95;;;2.63;;
12145;SDS011;6136;47.032;15.398;2023-07-02T08:38:58;4.13;;;3.38;;
12145;SDS011;6136;47.032;15.398;2023-07-02T08:41:26;5.97;;;2.35;;
12145;SDS011;6136;47.032;15.398;2023-07-02T08:43:56;3.10;;;2.80;;
12145;SDS011;6136;47.032;15.398;2023-07-02T08:46:26;3.38;;;3.08;;
12145;SDS011;6136;47.032;15.398;2023-07-02T08:48:55;3.85;;;3.00;;
12145;SDS011;6136;47.032;15.398;2023-07-02T08:51:24;3.33;;;3.03;;
12145;SDS011;6136;47.032;15.398;2023-07-02T08:53:52;3.28;;;2.97;;
12145;SDS011;6136;47.032;15.398;2023-07-02T08:56:20;2.95;;;2.65;;
12145;SDS011;6136;47.032;15.398;2023-07-02T08:58:48;5.25;;;3.10;;
12145;SDS011;6136;47.032;15.398;2023-07-02T09:01:16;3.60;;;3.15;;
12145;SDS011;6136;47.032;15.398;2023-07-02T09:03:44;2.72;;;2.45;;
12145;SDS011;6136;47.032;15.398;2023-07-02T09:06:16;3.03;;;2.72;;
12145;SDS011;6136;47.032;15.398;2023-07-02T09:08:45;3.58;;;3.10;;
12145;SDS011;6136;47.032;15.398;2023-07-02T09:11:14;2.75;;;2.50;;
12145;SDS011;6136;47.032;15.398;2023-07-02T09:13:47;3.22;;;2.80;;
12145;SDS011;6136;47.032;15.398;2023-07-02T09:16:23;3.13;;;2.83;;
12145;SDS011;6136;47.032;15.398;2023-07-02T09:18:55;3.15;;;2.85;;
12145;SDS011;6136;47.032;15.398;2023-07-02T09:21:26;2.63;;;2.42;;
12145;SDS011;6136;47.032;15.398;2023-07-02T09:23:55;2.90;;;2.40;;
12145;SDS011;6136;47.032;15.398;2023-07-02T09:26:23;2.90;;;2.60;;
12145;SDS011;6136;47.032;15.398;2023-07-02T09:28:59;3.88;;;3.08;;
12145;SDS011;6136;47.032;15.398;2023-07-02T09:31:28;3.10;;;2.80;;
12145;SDS011;6136;47.032;15.398;2023-07-02T09:34:01;3.30;;;3.00;;
12145;SDS011;6136;47.032;15.398;2023-07-02T09:36:31;3.75;;;3.35;;
12145;SDS011;6136;47.032;15.398;2023-07-02T09:38:59;3.22;;;2.92;;
12145;SDS011;6136;47.032;15.398;2023-07-02T09:41:28;3.20;;;2.90;;
12145;SDS011;6136;47.032;15.398;2023-07-02T09:43:56;3.33;;;3.03;;
12145;SDS011;6136;47.032;15.398;2023-07-02T09:46:24;4.97;;;3.20;;
12145;SDS011;6136;47.032;15.398;2023-07-02T09:48:53;3.55;;;3.20;;
12145;SDS011;6136;47.032;15.398;2023-07-02T09:51:21;3.63;;;3.30;;
12145;SDS011;6136;47.032;15.398;2023-07-02T09:53:52;2.58;;;2.38;;
12145;SDS011;6136;47.032;15.398;2023-07-02T09:56:20;2.70;;;2.50;;
12145;SDS011;6136;47.032;15.398;2023-07-02T09:58:49;5.25;;;2.28;;
12145;SDS011;6136;47.032;15.398;2023-07-02T10:01:17;2.53;;;2.33;;
12145;SDS011;6136;47.032;15.398;2023-07-02T10:03:45;2.90;;;2.47;;
12145;SDS011;6136;47.032;15.398;2023-07-02T10:06:13;2.22;;;2.10;;
12145;SDS011;6136;47.032;15.398;2023-07-02T10:08:53;3.00;;;2.70;;
12145;SDS011;6136;47.032;15.398;2023-07-02T10:11:32;5.38;;;3.15;;
12145;SDS011;6136;47.032;15.398;2023-07-02T10:14:01;2.80;;;2.47;;
12145;SDS011;6136;47.032;15.398;2023-07-02T10:16:29;3.38;;;3.08;;
12145;SDS011;6136;47.032;15.398;2023-07-02T10:19:07;3.30;;;3.00;;
12145;SDS011;6136;47.032;15.398;2023-07-02T10:21:36;4.50;;;2.72;;
12145;SDS011;6136;47.032;15.398;2023-07-02T10:24:13;2.60;;;2.40;;
12145;SDS011;6136;47.032;15.398;2023-07-02T10:26:52;2.70;;;2.50;;
12145;SDS011;6136;47.032;15.398;2023-07-02T10:29:22;3.70;;;3.05;;
12145;SDS011;6136;47.032;15.398;2023-07-02T10:31:51;3.03;;;2.70;;
12145;SDS011;6136;47.032;15.398;2023-07-02T10:34:30;3.25;;;2.75;;
12145;SDS011;6136;47.032;15.398;2023-07-02T10:36:59;3.35;;;3.03;;
12145;SDS011;6136;47.032;15.398;2023-07-02T10:39:30;3.20;;;2.90;;
12145;SDS011;6136;47.032;15.398;2023-07-02T10:42:05;2.72;;;2.50;;
12145;SDS011;6136;47.032;15.398;2023-07-02T10:44:34;2.92;;;2.72;;
12145;SDS011;6136;47.032;15.398;2023-07-02T10:47:14;5.07;;;2.72;;
12145;SDS011;6136;47.032;15.398;2023-07-02T10:49:42;2.80;;;2.60;;
12145;SDS011;6136;47.032;15.398;2023-07-02T10:52:10;12.55;;;7.80;;
12145;SDS011;6136;47.032;15.398;2023-07-02T10:54:40;3.33;;;3.00;;
12145;SDS011;6136;47.032;15.398;2023-07-02T10:57:10;4.72;;;3.58;;
12145;SDS011;6136;47.032;15.398;2023-07-02T10:59:41;3.35;;;2.65;;
12145;SDS011;6136;47.032;15.398;2023-07-02T11:02:09;3.05;;;2.85;;
12145;SDS011;6136;47.032;15.398;2023-07-02T11:04:38;2.85;;;2.50;;
12145;SDS011;6136;47.032;15.398;2023-07-02T11:07:06;3.20;;;2.72;;
12145;SDS011;6136;47.032;15.398;2023-07-02T11:09:34;2.53;;;2.33;;
12145;SDS011;6136;47.032;15.398;2023-07-02T11:12:04;3.10;;;2.80;;
12145;SDS011;6136;47.032;15.398;2023-07-02T11:14:34;3.08;;;2.88;;
12145;SDS011;6136;47.032;15.398;2023-07-02T11:17:03;2.70;;;2.50;;
12145;SDS011;6136;47.032;15.398;2023-07-02T11:19:33;2.50;;;2.30;;
12145;SDS011;6136;47.032;15.398;2023-07-02T11:22:02;4.07;;;2.90;;
12145;SDS011;6136;47.032;15.398;2023-07-02T11:24:31;4.10;;;3.30;;
12145;SDS011;6136;47.032;15.398;2023-07-02T11:27:00;3.63;;;3.00;;
12145;SDS011;6136;47.032;15.398;2023-07-02T11:29:31;4.90;;;2.80;;
12145;SDS011;6136;47.032;15.398;2023-07-02T11:32:09;3.92;;;3.25;;
12145;SDS011;6136;47.032;15.398;2023-07-02T11:34:38;3.60;;;2.90;;
12145;SDS011;6136;47.032;15.398;2023-07-02T11:37:07;2.92;;;2.72;;
12145;SDS011;6136;47.032;15.398;2023-07-02T11:39:35;4.22;;;2.70;;
12145;SDS011;6136;47.032;15.398;2023-07-02T11:42:04;3.33;;;3.00;;
12145;SDS011;6136;47.032;15.398;2023-07-02T11:44:34;3.90;;;3.15;;
12145;SDS011;6136;47.032;15.398;2023-07-02T11:47:02;3.45;;;3.00;;
12145;SDS011;6136;47.032;15.398;2023-07-02T11:49:31;3.03;;;2.72;;
12145;SDS011;6136;47.032;15.398;2023-07-02T11:52:00;2.72;;;2.53;;
12145;SDS011;6136;47.032;15.398;2023-07-02T11:54:28;3.40;;;2.83;;
12145;SDS011;6136;47.032;15.398;2023-07-02T11:56:57;3.25;;;2.95;;
12145;SDS011;6136;47.032;15.398;2023-07-02T11:59:25;3.72;;;3.08;;
12145;SDS011;6136;47.032;15.398;2023-07-02T12:01:55;3.05;;;2.78;;
12145;SDS011;6136;47.032;15.398;2023-07-02T12:04:23;4.35;;;3.00;;
12145;SDS011;6136;47.032;15.398;2023-07-02T12:06:51;4.43;;;3.00;;
12145;SDS011;6136;47.032;15.398;2023-07-02T12:09:20;3.28;;;2.97;;
12145;SDS011;6136;47.032;15.398;2023-07-02T12:11:48;3.63;;;2.72;;
12145;SDS011;6136;47.032;15.398;2023-07-02T12:14:16;2.90;;;2.40;;
12145;SDS011;6136;47.032;15.398;2023-07-02T12:16:44;3.72;;;3.15;;
12145;SDS011;6136;47.032;15.398;2023-07-02T12:19:14;2.60;;;2.40;;
12145;SDS011;6136;47.032;15.398;2023-07-02T12:21:42;2.92;;;2.58;;
12145;SDS011;6136;47.032;15.398;2023-07-02T12:24:10;3.80;;;2.70;;
12145;SDS011;6136;47.032;15.398;2023-07-02T12:26:39;3.22;;;2.92;;
12145;SDS011;6136;47.032;15.398;2023-07-02T12:29:07;2.75;;;2.55;;
12145;SDS011;6136;47.032;15.398;2023-07-02T12:31:35;3.95;;;2.90;;
12145;SDS011;6136;47.032;15.398;2023-07-02T12:34:03;2.78;;;2.58;;
12145;SDS011;6136;47.032;15.398;2023-07-02T12:36:33;2.80;;;2.53;;
12145;SDS011;6136;47.032;15.398;2023-07-02T12:39:01;2.85;;;2.63;;
12145;SDS011;6136;47.032;15.398;2023-07-02T12:41:29;3.35;;;2.78;;
12145;SDS011;6136;47.032;15.398;2023-07-02T12:43:57;3.30;;;3.00;;
12145;SDS011;6136;47.032;15.398;2023-07-02T12:46:26;2.67;;;2.47;;
12145;SDS011;6136;47.032;15.398;2023-07-02T12:48:54;3.42;;;3.08;;
12145;SDS011;6136;47.032;15.398;2023-07-02T12:51:22;2.30;;;2.00;;
12145;SDS011;6136;47.032;15.398;2023-07-02T12:53:51;1.70;;;1.60;;
12145;SDS011;6136;47.032;15.398;2023-07-02T12:56:20;2.53;;;1.67;;
12145;SDS011;6136;47.032;15.398;2023-07-02T12:58:48;1.70;;;1.60;;
12145;SDS011;6136;47.032;15.398;2023-07-02T13:01:18;2.13;;;1.92;;
12145;SDS011;6136;47.032;15.398;2023-07-02T13:03:47;2.05;;;1.83;;
12145;SDS011;6136;47.032;15.398;2023-07-02T13:06:17;1.58;;;1.48;;
12145;SDS011;6136;47.032;15.398;2023-07-02T13:08:45;2.20;;;2.00;;
12145;SDS011;6136;47.032;15.398;2023-07-02T13:11:16;2.38;;;2.17;;
12145;SDS011;6136;47.032;15.398;2023-07-02T13:13:45;1.52;;;1.42;;
12145;SDS011;6136;47.032;15.398;2023-07-02T13:16:14;2.05;;;1.85;;
12145;SDS011;6136;47.032;15.398;2023-07-02T13:18:43;2.03;;;1.85;;
12145;SDS011;6136;47.032;15.398;2023-07-02T13:21:13;1.83;;;1.73;;
12145;SDS011;6136;47.032;15.398;2023-07-02T13:23:44;1.77;;;1.67;;
12145;SDS011;6136;47.032;15.398;2023-07-02T13:26:13;1.95;;;1.83;;
12145;SDS011;6136;47.032;15.398;2023-07-02T13:28:43;1.80;;;1.70;;
12145;SDS011;6136;47.032;15.398;2023-07-02T13:31:14;3.05;;;1.77;;
12145;SDS011;6136;47.032;15.398;2023-07-02T13:33:44;2.28;;;1.83;;
12145;SDS011;6136;47.032;15.398;2023-07-02T13:36:13;2.20;;;2.00;;
12145;SDS011;6136;47.032;15.398;2023-07-02T13:38:41;2.53;;;2.10;;
12145;SDS011;6136;47.032;15.398;2023-07-02T13:41:11;2.22;;;2.03;;
12145;SDS011;6136;47.032;15.398;2023-07-02T13:43:39;2.13;;;1.92;;
12145;SDS011;6136;47.032;15.398;2023-07-02T13:46:09;2.30;;;2.10;;
12145;SDS011;6136;47.032;15.398;2023-07-02T13:48:39;3.08;;;2.78;;
12145;SDS011;6136;47.032;15.398;2023-07-02T13:51:08;2.33;;;1.98;;
12145;SDS011;6136;47.032;15.398;2023-07-02T13:53:36;2.30;;;2.10;;
12145;SDS011;6136;47.032;15.398;2023-07-02T13:56:05;2.65;;;2.22;;
12145;SDS011;6136;47.032;15.398;2023-07-02T13:58:59;3.25;;;2.70;;
12145;SDS011;6136;47.032;15.398;2023-07-02T14:01:29;2.75;;;2.55;;
12145;SDS011;6136;47.032;15.398;2023-07-02T14:03:59;2.55;;;2.35;;
12145;SDS011;6136;47.032;15.398;2023-07-02T14:06:28;2.97;;;2.67;;
12145;SDS011;6136;47.032;15.398;2023-07-02T14:08:57;3.65;;;2.78;;
12145;SDS011;6136;47.032;15.398;2023-07-02T14:11:26;3.30;;;3.00;;
12145;SDS011;6136;47.032;15.398;2023-07-02T14:13:56;2.75;;;2.50;;
12145;SDS011;6136;47.032;15.398;2023-07-02T14:16:26;2.65;;;2.45;;
12145;SDS011;6136;47.032;15.398;2023-07-02T14:18:56;2.78;;;2.58;;
12145;SDS011;6136;47.032;15.398;2023-07-02T14:21:25;2.95;;;2.65;;
12145;SDS011;6136;47.032;15.398;2023-07-02T14:23:54;3.70;;;3.20;;
12145;SDS011;6136;47.032;15.398;2023-07-02T14:26:24;2.80;;;2.60;;
12145;SDS011;6136;47.032;15.398;2023-07-02T14:28:53;4.68;;;2.60;;
12145;SDS011;6136;47.032;15.398;2023-07-02T14:31:22;3.50;;;3.20;;
12145;SDS011;6136;47.032;15.398;2023-07-02T14:33:52;3.13;;;2.83;;
12145;SDS011;6136;47.032;15.398;2023-07-02T14:36:21;4.75;;;2.90;;
12145;SDS011;6136;47.032;15.398;2023-07-02T14:38:50;3.50;;;3.20;;
12145;SDS011;6136;47.032;15.398;2023-07-02T14:41:18;3.28;;;3.00;;
12145;SDS011;6136;47.032;15.398;2023-07-02T14:43:48;3.28;;;2.97;;
12145;SDS011;6136;47.032;15.398;2023-07-02T14:46:16;3.33;;;3.03;;
12145;SDS011;6136;47.032;15.398;2023-07-02T14:48:44;3.63;;;3.33;;
12145;SDS011;6136;47.032;15.398;2023-07-02T14:51:14;3.65;;;3.25;;
12145;SDS011;6136;47.032;15.398;2023-07-02T14:53:42;3.40;;;3.08;;
12145;SDS011;6136;47.032;15.398;2023-07-02T14:56:11;3.88;;;3.47;;
12145;SDS011;6136;47.032;15.398;2023-07-02T14:58:39;3.53;;;3.20;;